Time;durP1;ratioP1;P1;durP2;ratioP2;P2;SDS_P1;SDS_P2;PMS_P1;PMS_P2;Temp;Humidity;BMP_temperature;BMP_pressure;BME280_temperature;BME280_humidity;BME280_pressure;Samples;Min_cycle;Max_cycle;Signal;HPM_P1;HPM_P2
2022/07/08 00:01:11;;;;;;;7.82;0.63;;;;;;;12.80;46.45;102758.97;5010912;28;20049;-76
2022/07/08 00:03:37;;;;;;;5.75;1.05;;;;;;;13.03;46.05;102767.28;5009885;28;20026;-75
2022/07/08 00:06:02;;;;;;;2.97;0.20;;;;;;;12.94;45.86;102754.34;5011646;28;20041;-75
2022/07/08 00:08:30;;;;;;;4.57;1.10;;;;;;;12.83;46.00;102754.56;5029746;28;20029;-75
2022/07/08 00:10:56;;;;;;;4.60;0.73;;;;;;;12.68;46.24;102750.41;4996302;28;20520;-75
2022/07/08 00:13:22;;;;;;;7.63;0.60;;;;;;;12.66;45.43;102746.09;5016586;28;20052;-75
2022/07/08 00:15:48;;;;;;;6.03;0.30;;;;;;;12.44;45.18;102745.63;5014934;28;20036;-76
2022/07/08 00:18:13;;;;;;;9.05;0.47;;;;;;;12.62;44.58;102742.66;5009601;28;20114;-77
2022/07/08 00:20:39;;;;;;;3.05;0.20;;;;;;;12.56;44.51;102745.41;4996410;28;20037;-76
2022/07/08 00:23:04;;;;;;;11.00;0.40;;;;;;;12.95;43.98;102761.31;5009715;28;20113;-75
2022/07/08 00:25:30;;;;;;;8.75;0.32;;;;;;;12.59;44.80;102752.38;4996355;28;20046;-75
2022/07/08 00:27:55;;;;;;;7.15;0.57;;;;;;;12.49;45.05;102751.66;5028647;28;20065;-75
2022/07/08 00:30:21;;;;;;;5.57;0.75;;;;;;;12.53;45.16;102753.31;5016702;28;20061;-77
2022/07/08 00:32:46;;;;;;;7.22;0.55;;;;;;;12.62;44.79;102742.66;5012286;28;20102;-75
2022/07/08 00:35:12;;;;;;;8.63;0.68;;;;;;;12.37;45.16;102754.50;5013937;28;20076;-76
2022/07/08 00:37:37;;;;;;;6.72;0.30;;;;;;;12.58;44.48;102759.38;5028308;28;20369;-76
2022/07/08 00:40:04;;;;;;;6.10;0.40;;;;;;;12.36;44.59;102753.66;5017615;28;20037;-76
2022/07/08 00:42:30;;;;;;;7.60;0.57;;;;;;;12.19;45.29;102745.22;4998618;28;20025;-77
2022/07/08 00:44:55;;;;;;;3.80;0.32;;;;;;;12.23;45.09;102745.13;5009070;28;20445;-77
2022/07/08 00:47:21;;;;;;;6.53;0.60;;;;;;;12.08;45.29;102748.84;5009771;28;20037;-75
2022/07/08 00:49:49;;;;;;;6.88;0.35;;;;;;;12.34;45.22;102747.56;5015564;28;20203;-78
2022/07/08 00:52:15;;;;;;;10.15;0.65;;;;;;;12.58;44.83;102741.00;5015551;28;20040;-75
2022/07/08 00:54:41;;;;;;;7.30;0.25;;;;;;;12.37;45.63;102749.25;5013604;28;20057;-76
2022/07/08 00:57:06;;;;;;;5.82;0.40;;;;;;;12.11;46.03;102742.72;5019004;28;20136;-77
2022/07/08 00:59:32;;;;;;;6.32;0.45;;;;;;;12.39;45.39;102747.47;5012055;28;20050;-77
2022/07/08 01:01:58;;;;;;;6.88;0.57;;;;;;;12.32;45.68;102746.72;5010140;28;20044;-78
2022/07/08 01:04:24;;;;;;;5.40;0.43;;;;;;;12.36;45.82;102752.78;5018122;28;20041;-78
2022/07/08 01:06:49;;;;;;;6.80;0.40;;;;;;;12.67;45.23;102753.09;5014813;28;20116;-75
2022/07/08 01:09:15;;;;;;;2.90;0.17;;;;;;;12.64;45.27;102750.50;5018657;28;20378;-77
2022/07/08 01:11:48;;;;;;;4.35;0.40;;;;;;;12.69;45.30;102753.94;5014251;28;20896;-77
2022/07/08 01:14:15;;;;;;;7.22;0.47;;;;;;;12.76;44.98;102759.94;4999581;28;20514;-78
2022/07/08 01:16:41;;;;;;;3.08;0.60;;;;;;;12.83;44.83;102762.41;5015357;28;20026;-75
2022/07/08 01:19:07;;;;;;;10.00;0.68;;;;;;;12.77;45.15;102756.44;4993211;28;20041;-79
2022/07/08 01:21:32;;;;;;;9.80;0.55;;;;;;;12.41;46.04;102761.44;5013581;28;20039;-76
2022/07/08 01:23:58;;;;;;;4.13;0.28;;;;;;;12.75;45.27;102760.84;5015643;28;20576;-76
2022/07/08 01:26:24;;;;;;;4.53;0.82;;;;;;;12.71;45.40;102754.78;5014656;28;20784;-76
2022/07/08 01:28:50;;;;;;;6.00;0.38;;;;;;;12.56;45.84;102760.28;5014950;28;20807;-77
2022/07/08 01:31:15;;;;;;;5.75;0.60;;;;;;;12.49;46.02;102756.91;5014625;28;20052;-79
2022/07/08 01:33:41;;;;;;;6.35;0.50;;;;;;;12.40;46.55;102755.34;5009777;28;20621;-78
2022/07/08 01:36:07;;;;;;;5.28;0.47;;;;;;;12.02;47.75;102754.22;5003355;28;20049;-76
2022/07/08 01:38:33;;;;;;;7.88;0.75;;;;;;;12.11;47.72;102758.44;5014764;28;20048;-78
2022/07/08 01:40:58;;;;;;;11.63;0.32;;;;;;;12.08;48.06;102756.72;4998552;28;20041;-77
2022/07/08 01:43:24;;;;;;;8.60;0.50;;;;;;;12.11;47.98;102747.97;5017517;28;20091;-76
2022/07/08 01:45:50;;;;;;;10.05;0.73;;;;;;;11.99;48.25;102750.78;5012976;28;20041;-74
2022/07/08 01:48:15;;;;;;;6.25;0.45;;;;;;;12.14;47.99;102753.16;5015885;28;20041;-77
2022/07/08 01:50:41;;;;;;;5.53;0.45;;;;;;;11.99;48.68;102753.41;5009530;28;20049;-76
2022/07/08 01:53:06;;;;;;;5.90;0.35;;;;;;;12.06;48.71;102752.41;5012972;28;20033;-76
2022/07/08 01:55:32;;;;;;;6.80;0.45;;;;;;;12.13;48.46;102745.31;5007961;28;20076;-75
2022/07/08 01:57:57;;;;;;;7.65;0.63;;;;;;;12.08;48.17;102754.09;5014650;28;20744;-77
2022/07/08 02:00:23;;;;;;;4.32;0.50;;;;;;;12.05;48.05;102740.19;5008267;28;20076;-77
2022/07/08 02:02:49;;;;;;;9.40;0.50;;;;;;;12.13;47.80;102754.03;4998588;28;20044;-75
2022/07/08 02:05:15;;;;;;;3.90;0.35;;;;;;;11.87;47.97;102752.72;5013795;28;20932;-75
2022/07/08 02:07:40;;;;;;;2.33;0.73;;;;;;;12.15;47.55;102754.88;5009804;28;20061;-75
2022/07/08 02:10:07;;;;;;;5.45;0.32;;;;;;;12.12;47.33;102752.31;5012638;28;20050;-75
2022/07/08 02:12:34;;;;;;;3.95;0.30;;;;;;;11.96;47.94;102756.09;5008102;28;20215;-77
2022/07/08 02:15:02;;;;;;;5.82;0.55;;;;;;;11.86;47.95;102753.56;5006219;28;20087;-76
2022/07/08 02:17:34;;;;;;;6.78;0.55;;;;;;;12.06;47.32;102761.13;5008708;28;20445;-77
2022/07/08 02:20:00;;;;;;;8.43;0.60;;;;;;;12.03;47.77;102766.44;5013301;28;20058;-76
2022/07/08 02:22:26;;;;;;;3.83;0.73;;;;;;;12.03;47.72;102768.19;5011634;28;20034;-76
2022/07/08 02:24:52;;;;;;;7.38;0.82;;;;;;;12.12;47.53;102767.19;4990925;28;20038;-75
2022/07/08 02:27:18;;;;;;;6.15;0.40;;;;;;;12.20;47.09;102765.28;5011921;28;20594;-76
2022/07/08 02:29:44;;;;;;;2.67;0.60;;;;;;;12.03;47.39;102755.09;5028168;28;20060;-76
2022/07/08 02:32:10;;;;;;;4.20;0.68;;;;;;;12.07;47.25;102762.00;4999812;28;20037;-77
2022/07/08 02:34:35;;;;;;;5.88;0.88;;;;;;;11.71;48.20;102764.28;5027849;28;20484;-76
2022/07/08 02:37:01;;;;;;;6.55;0.28;;;;;;;11.79;48.11;102769.44;5014879;28;20112;-77
2022/07/08 02:39:27;;;;;;;4.57;1.10;;;;;;;11.71;48.46;102774.75;5003983;28;20132;-75
2022/07/08 02:41:52;;;;;;;5.47;0.40;;;;;;;11.96;48.20;102775.28;5010422;28;20033;-74
2022/07/08 02:44:18;;;;;;;4.88;0.20;;;;;;;11.96;48.21;102777.03;5008301;28;20128;-75
2022/07/08 02:46:44;;;;;;;10.38;0.75;;;;;;;11.92;47.96;102775.34;4992493;28;20038;-76
2022/07/08 02:49:10;;;;;;;5.10;0.40;;;;;;;11.85;48.43;102778.06;5000844;28;20203;-75
2022/07/08 02:51:36;;;;;;;11.50;1.08;;;;;;;11.86;48.38;102782.41;5022990;28;20301;-75
2022/07/08 02:54:04;;;;;;;8.20;0.90;;;;;;;11.83;48.62;102785.06;5030569;28;20334;-74
2022/07/08 02:56:30;;;;;;;3.90;0.85;;;;;;;11.77;48.42;102782.53;5013193;28;20068;-77
2022/07/08 02:58:57;;;;;;;7.65;0.65;;;;;;;11.81;48.51;102784.22;5009025;28;20042;-75
2022/07/08 03:01:22;;;;;;;5.78;0.30;;;;;;;11.74;49.11;102782.56;5016702;28;20108;-75
2022/07/08 03:03:48;;;;;;;9.57;0.82;;;;;;;11.88;49.03;102783.25;5000809;28;20128;-77
2022/07/08 03:06:13;;;;;;;3.70;0.45;;;;;;;11.91;48.55;102782.34;5018543;28;20042;-75
2022/07/08 03:08:39;;;;;;;5.90;0.43;;;;;;;11.85;48.71;102782.44;5003021;28;20022;-74
2022/07/08 03:11:05;;;;;;;4.18;0.40;;;;;;;11.80;49.02;102779.91;5002399;28;20123;-75
2022/07/08 03:13:31;;;;;;;3.35;0.52;;;;;;;11.85;48.78;102780.69;5011081;28;20038;-76
2022/07/08 03:15:57;;;;;;;6.72;0.30;;;;;;;11.80;49.09;102777.28;5013140;28;20162;-75
2022/07/08 03:18:23;;;;;;;7.07;1.08;;;;;;;11.93;48.93;102784.94;4998573;28;20726;-75
2022/07/08 03:20:48;;;;;;;3.17;0.60;;;;;;;11.97;49.08;102786.63;5012572;28;20102;-74
2022/07/08 03:23:14;;;;;;;2.60;0.30;;;;;;;12.04;49.14;102789.13;4996763;28;20396;-76
2022/07/08 03:25:39;;;;;;;5.22;0.60;;;;;;;11.92;49.43;102788.47;5001485;28;20104;-75
2022/07/08 03:28:05;;;;;;;5.03;0.45;;;;;;;11.88;49.31;102783.25;5015776;28;20041;-77
2022/07/08 03:30:30;;;;;;;8.20;0.65;;;;;;;11.85;49.41;102785.91;5000919;28;20041;-75
2022/07/08 03:32:56;;;;;;;5.28;0.40;;;;;;;11.80;49.88;102793.00;5016718;28;20112;-75
2022/07/08 03:35:22;;;;;;;4.45;0.30;;;;;;;11.60;50.02;102787.16;5004906;28;20108;-75
2022/07/08 03:37:48;;;;;;;5.43;0.88;;;;;;;11.71;49.87;102785.25;5016247;28;20037;-75
2022/07/08 03:42:58;;;;;;;4.68;0.35;;;;;;;11.83;49.49;102795.56;5014008;28;20069;-75
2022/07/08 03:45:23;;;;;;;6.32;0.95;;;;;;;11.87;49.61;102791.16;5014326;28;21009;-74
2022/07/08 03:47:49;;;;;;;7.57;0.65;;;;;;;11.83;49.69;102787.69;5013773;28;20068;-76
2022/07/08 03:50:14;;;;;;;7.55;0.85;;;;;;;11.77;49.83;102789.50;5033534;28;20087;-76
2022/07/08 03:52:40;;;;;;;2.85;0.55;;;;;;;11.77;49.94;102784.28;5014203;28;20155;-75
2022/07/08 03:55:07;;;;;;;6.05;0.50;;;;;;;11.69;50.04;102784.41;5010620;28;20556;-76
2022/07/08 03:57:32;;;;;;;6.15;0.65;;;;;;;11.70;49.95;102783.50;4998963;28;20084;-76
2022/07/08 03:59:58;;;;;;;6.15;0.50;;;;;;;11.67;50.35;102786.16;5014659;28;20033;-75
2022/07/08 04:02:24;;;;;;;2.38;0.57;;;;;;;11.78;50.45;102791.28;5012165;28;20444;-75
2022/07/08 04:04:50;;;;;;;4.03;0.28;;;;;;;11.88;50.28;102798.09;4994770;28;20091;-76
2022/07/08 04:07:16;;;;;;;4.60;0.32;;;;;;;11.83;50.07;102800.78;5016152;28;20772;-75
2022/07/08 04:09:42;;;;;;;15.13;1.23;;;;;;;11.79;50.23;102790.38;5032005;28;20037;-76
2022/07/08 04:12:09;;;;;;;7.57;0.50;;;;;;;11.92;50.17;102793.69;5032544;28;20087;-76
2022/07/08 04:14:34;;;;;;;10.73;0.93;;;;;;;11.99;50.06;102793.56;5014661;28;20152;-80
2022/07/08 04:17:00;;;;;;;4.93;0.50;;;;;;;12.11;49.76;102797.78;4999973;28;22807;-75
2022/07/08 04:19:25;;;;;;;4.35;0.30;;;;;;;12.25;49.65;102802.78;5015422;28;20053;-76
2022/07/08 04:21:51;;;;;;;7.85;0.50;;;;;;;12.12;49.88;102801.25;5015931;28;20037;-75
2022/07/08 04:24:16;;;;;;;5.30;0.95;;;;;;;12.27;49.77;102806.25;5011467;28;20044;-77
2022/07/08 04:26:42;;;;;;;6.88;0.35;;;;;;;11.99;50.18;102805.81;5017752;28;20610;-76
2022/07/08 04:29:07;;;;;;;7.15;0.40;;;;;;;12.28;49.74;102797.47;5016048;28;20530;-76
2022/07/08 04:31:33;;;;;;;7.20;0.68;;;;;;;12.50;49.56;102797.97;5018730;28;20248;-78
2022/07/08 04:33:58;;;;;;;8.27;0.75;;;;;;;12.53;49.41;102803.16;5011528;28;20037;-75
2022/07/08 04:36:24;;;;;;;5.70;0.75;;;;;;;12.57;49.28;102799.59;5011778;28;20074;-77
2022/07/08 04:38:50;;;;;;;5.93;0.88;;;;;;;12.67;48.89;102795.94;5017146;28;20207;-74
2022/07/08 04:41:15;;;;;;;11.50;1.40;;;;;;;12.85;48.55;102802.63;5018516;28;20427;-79
2022/07/08 04:43:43;;;;;;;10.10;1.88;;;;;;;13.07;48.67;102794.31;4997734;28;20033;-76
2022/07/08 04:46:10;;;;;;;5.35;0.75;;;;;;;13.06;48.13;102803.09;5016124;28;20038;-77
2022/07/08 04:48:36;;;;;;;6.68;0.88;;;;;;;13.39;47.83;102813.81;5017561;28;20033;-75
2022/07/08 04:51:01;;;;;;;5.97;0.55;;;;;;;13.40;47.36;102819.00;4975614;28;20560;-76
2022/07/08 04:53:27;;;;;;;7.65;0.85;;;;;;;13.44;47.20;102825.94;5016648;28;20057;-77
2022/07/08 04:55:52;;;;;;;10.68;0.52;;;;;;;13.66;46.71;102830.78;4994475;28;20049;-76
2022/07/08 04:58:17;;;;;;;11.90;1.35;;;;;;;13.56;46.97;102818.69;5034284;28;20191;-75
2022/07/08 05:00:43;;;;;;;3.92;0.63;;;;;;;13.97;46.79;102819.56;5013127;28;20096;-76
2022/07/08 05:03:09;;;;;;;15.23;4.72;;;;;;;14.11;45.92;102820.09;5001165;28;20155;-76
2022/07/08 05:05:34;;;;;;;10.35;1.15;;;;;;;14.21;45.65;102829.50;4998601;28;20041;-78
2022/07/08 05:08:00;;;;;;;4.80;1.25;;;;;;;14.30;45.67;102826.63;5016917;28;20038;-77
2022/07/08 05:10:27;;;;;;;9.45;0.40;;;;;;;14.21;46.09;102818.09;5014735;28;20055;-78
2022/07/08 05:12:53;;;;;;;5.32;0.68;;;;;;;14.06;46.08;102820.19;5011159;28;20069;-76
2022/07/08 05:15:20;;;;;;;8.45;1.05;;;;;;;13.98;46.42;102813.41;5017303;28;20496;-76
2022/07/08 05:17:47;;;;;;;10.90;1.48;;;;;;;13.74;47.36;102813.06;4999972;28;20507;-77
2022/07/08 05:20:13;;;;;;;7.13;0.70;;;;;;;14.01;47.22;102815.94;5013804;28;20132;-80
2022/07/08 05:22:39;;;;;;;7.88;0.90;;;;;;;14.15;46.98;102824.38;4997299;28;22536;-78
2022/07/08 05:25:06;;;;;;;4.97;0.55;;;;;;;14.19;46.62;102820.78;4971746;28;20723;-77
2022/07/08 05:27:33;;;;;;;5.15;0.57;;;;;;;13.98;47.18;102822.13;5016497;28;20110;-78
2022/07/08 05:29:59;;;;;;;17.48;1.23;;;;;;;14.28;47.11;102819.69;4990856;28;20088;-79
2022/07/08 05:32:24;;;;;;;11.50;0.90;;;;;;;14.26;46.82;102816.22;4995653;28;20132;-77
2022/07/08 05:34:50;;;;;;;7.03;0.55;;;;;;;14.29;46.79;102817.00;5015912;28;20445;-75
2022/07/08 05:37:16;;;;;;;7.05;0.70;;;;;;;14.24;46.79;102816.25;5001928;28;20041;-76
2022/07/08 05:39:42;;;;;;;7.95;0.70;;;;;;;14.10;47.06;102813.13;4995931;28;20488;-77
2022/07/08 05:42:10;;;;;;;7.63;0.75;;;;;;;14.18;46.85;102808.50;5015951;28;20033;-77
2022/07/08 05:44:37;;;;;;;3.75;0.73;;;;;;;14.44;46.86;102815.78;5029634;28;20037;-79
2022/07/08 05:47:03;;;;;;;8.77;0.70;;;;;;;14.52;46.48;102832.25;5001645;28;20034;-77
2022/07/08 05:49:30;;;;;;;11.48;0.52;;;;;;;14.43;46.19;102826.34;5010577;28;20127;-78
2022/07/08 05:51:55;;;;;;;5.40;0.50;;;;;;;14.39;47.13;102827.28;5026783;28;20514;-76
2022/07/08 05:54:21;;;;;;;2.30;0.43;;;;;;;14.33;47.91;102839.69;5010074;28;20053;-79
2022/07/08 05:56:46;;;;;;;9.90;1.05;;;;;;;14.39;46.88;102828.19;5011447;28;20044;-78
2022/07/08 05:59:12;;;;;;;4.20;0.63;;;;;;;14.29;46.67;102838.03;5011198;28;20510;-77
2022/07/08 06:01:37;;;;;;;6.35;0.90;;;;;;;14.11;47.53;102835.88;5010033;28;20034;-75
2022/07/08 06:04:03;;;;;;;10.50;0.60;;;;;;;14.22;47.40;102848.75;5012486;28;20120;-77
2022/07/08 06:06:28;;;;;;;9.65;0.30;;;;;;;14.22;47.50;102848.75;5032638;28;20026;-77
2022/07/08 06:08:54;;;;;;;4.85;0.30;;;;;;;14.41;47.67;102841.31;5016402;28;20033;-76
2022/07/08 06:11:19;;;;;;;4.55;0.88;;;;;;;14.45;47.20;102849.06;5017413;28;20033;-78
2022/07/08 06:13:46;;;;;;;6.78;0.85;;;;;;;14.72;46.96;102837.00;4996486;28;20080;-79
2022/07/08 06:16:11;;;;;;;4.63;0.50;;;;;;;14.68;47.23;102845.88;4996718;28;20776;-78
2022/07/08 06:18:37;;;;;;;4.80;0.57;;;;;;;14.59;47.57;102848.75;5011296;28;20045;-76
2022/07/08 06:21:03;;;;;;;4.15;0.60;;;;;;;14.25;48.64;102846.06;4973829;28;20054;-77
2022/07/08 06:23:29;;;;;;;13.35;0.95;;;;;;;14.34;48.42;102846.72;4998799;28;20226;-80
2022/07/08 06:25:54;;;;;;;7.57;0.60;;;;;;;14.62;48.18;102851.28;5030463;28;20052;-78
2022/07/08 06:28:20;;;;;;;5.57;0.52;;;;;;;14.63;47.59;102853.00;5014281;28;20076;-77
2022/07/08 06:30:45;;;;;;;3.83;0.47;;;;;;;14.90;47.79;102854.06;4998939;28;20049;-77
2022/07/08 06:33:11;;;;;;;7.45;0.90;;;;;;;14.75;47.67;102851.84;5000097;28;20034;-77
2022/07/08 06:35:36;;;;;;;7.55;0.98;;;;;;;14.72;48.07;102858.06;4978425;28;20070;-77
2022/07/08 06:38:02;;;;;;;8.63;0.60;;;;;;;14.73;47.80;102854.50;5028954;28;20041;-77
2022/07/08 06:40:28;;;;;;;4.63;1.25;;;;;;;14.64;47.86;102860.00;5000771;28;20080;-77
2022/07/08 06:42:53;;;;;;;6.50;0.47;;;;;;;14.70;48.32;102861.59;5012806;28;20041;-76
2022/07/08 06:45:19;;;;;;;7.22;0.40;;;;;;;14.73;48.33;102864.19;5014972;28;20045;-76
2022/07/08 06:47:45;;;;;;;4.20;0.95;;;;;;;14.61;48.73;102865.34;5019359;28;20467;-77
2022/07/08 06:50:10;;;;;;;9.32;1.55;;;;;;;14.68;48.64;102871.31;5011039;28;20318;-77
2022/07/08 06:52:36;;;;;;;7.88;1.00;;;;;;;14.95;48.20;102869.75;5006867;28;20395;-78
2022/07/08 06:55:02;;;;;;;5.75;0.82;;;;;;;15.14;47.74;102886.75;4996737;28;20050;-76
2022/07/08 06:57:28;;;;;;;7.25;0.93;;;;;;;14.94;47.63;102889.91;5013255;28;20037;-77
2022/07/08 06:59:54;;;;;;;6.10;0.93;;;;;;;14.93;48.22;102887.34;4990371;28;20474;-78
2022/07/08 07:02:20;;;;;;;5.82;0.40;;;;;;;14.75;48.39;102892.19;5015891;28;20221;-78
2022/07/08 07:04:46;;;;;;;7.10;1.27;;;;;;;14.54;49.06;102892.72;4974043;28;20532;-77
2022/07/08 07:07:11;;;;;;;7.90;1.33;;;;;;;14.60;49.32;102896.97;4994167;28;20049;-77
2022/07/08 07:09:38;;;;;;;5.93;0.90;;;;;;;14.53;49.48;102898.91;5013378;28;20408;-77
2022/07/08 07:12:07;;;;;;;8.82;0.70;;;;;;;14.64;49.28;102896.88;5013401;28;20037;-78
2022/07/08 07:14:33;;;;;;;4.72;0.52;;;;;;;14.58;49.16;102902.28;5017976;28;20061;-76
2022/07/08 07:16:59;;;;;;;5.47;0.88;;;;;;;14.60;49.11;102900.47;5011283;28;20061;-77
2022/07/08 07:19:25;;;;;;;6.05;0.55;;;;;;;14.86;48.97;102897.19;4998173;28;20120;-76
2022/07/08 07:21:51;;;;;;;5.82;0.98;;;;;;;14.94;48.74;102900.44;5013240;28;20034;-78
2022/07/08 07:24:16;;;;;;;4.40;0.60;;;;;;;15.23;48.43;102905.88;5016068;28;20044;-77
2022/07/08 07:26:42;;;;;;;7.43;0.75;;;;;;;15.45;47.38;102891.19;5016699;28;20042;-78
2022/07/08 07:29:09;;;;;;;8.20;1.20;;;;;;;15.85;47.22;102892.66;5001405;28;20033;-79
2022/07/08 07:31:34;;;;;;;3.28;0.63;;;;;;;16.13;46.47;102894.47;5012846;28;20033;-77
2022/07/08 07:34:01;;;;;;;5.68;1.35;;;;;;;15.90;46.08;102900.44;5010614;28;20045;-78
2022/07/08 07:36:27;;;;;;;6.40;0.50;;;;;;;16.16;45.92;102889.09;5003737;28;20365;-76
2022/07/08 07:38:52;;;;;;;3.47;0.68;;;;;;;16.03;46.28;102887.75;5014636;28;20048;-78
2022/07/08 07:41:18;;;;;;;2.78;0.22;;;;;;;16.34;45.86;102895.56;5004168;28;20049;-79
2022/07/08 07:43:43;;;;;;;6.70;0.47;;;;;;;16.34;45.96;102893.78;5013810;28;20029;-78
2022/07/08 07:46:09;;;;;;;6.72;0.98;;;;;;;16.24;45.85;102897.63;5032032;28;21276;-77
2022/07/08 07:48:34;;;;;;;6.72;0.70;;;;;;;15.83;47.08;102897.13;5018999;28;20105;-79
2022/07/08 07:51:00;;;;;;;5.68;0.52;;;;;;;15.75;46.90;102899.09;4999048;28;20999;-79
2022/07/08 07:53:27;;;;;;;5.82;1.00;;;;;;;16.12;46.84;102898.03;5000866;28;20791;-79
2022/07/08 07:55:53;;;;;;;4.93;0.75;;;;;;;15.43;47.80;102902.69;5013691;28;20079;-81
2022/07/08 07:58:19;;;;;;;6.72;0.43;;;;;;;15.17;48.53;102907.75;5010429;28;20036;-77
2022/07/08 08:00:45;;;;;;;10.55;1.15;;;;;;;15.27;48.19;102913.66;5013260;28;20522;-78
2022/07/08 08:03:11;;;;;;;4.53;0.55;;;;;;;15.04;49.26;102916.03;5005050;28;20030;-79
2022/07/08 08:05:36;;;;;;;9.27;0.73;;;;;;;14.72;49.63;102918.59;5033467;28;20041;-77
2022/07/08 08:08:02;;;;;;;10.10;1.40;;;;;;;14.95;49.39;102922.41;4997828;28;20048;-77
2022/07/08 08:10:27;;;;;;;7.13;0.43;;;;;;;14.77;49.96;102913.22;5010304;28;20085;-80
2022/07/08 08:12:53;;;;;;;9.48;0.40;;;;;;;14.19;51.31;102920.72;5014104;28;20052;-79
2022/07/08 08:15:18;;;;;;;6.13;1.10;;;;;;;14.25;52.20;102920.53;5001162;28;20131;-77
2022/07/08 08:17:44;;;;;;;6.05;0.90;;;;;;;14.22;53.25;102927.66;5001155;28;20033;-76
2022/07/08 08:20:11;;;;;;;7.50;0.43;;;;;;;14.40;53.19;102923.75;5029858;28;20132;-76
2022/07/08 08:22:37;;;;;;;11.65;0.75;;;;;;;14.31;54.14;102930.94;5012625;28;20033;-76
2022/07/08 08:25:03;;;;;;;10.40;1.05;;;;;;;14.49;54.28;102932.31;4996936;28;20041;-75
2022/07/08 08:27:28;;;;;;;4.32;0.63;;;;;;;14.29;54.70;102927.47;4994281;28;20026;-76
2022/07/08 08:29:54;;;;;;;2.92;0.77;;;;;;;14.11;55.38;102923.50;5015204;28;20081;-77
2022/07/08 08:32:20;;;;;;;5.45;0.52;;;;;;;14.10;55.33;102929.69;5011435;28;20153;-75
2022/07/08 08:34:46;;;;;;;6.55;0.60;;;;;;;14.53;54.36;102931.34;5013182;28;20558;-76
2022/07/08 08:37:12;;;;;;;5.75;0.45;;;;;;;14.91;54.07;102923.38;5015283;28;20054;-76
2022/07/08 08:39:39;;;;;;;4.50;0.80;;;;;;;15.01;53.50;102924.84;5013114;28;20096;-75
2022/07/08 08:42:06;;;;;;;3.47;0.80;;;;;;;15.05;53.20;102926.50;5016818;28;20510;-75
2022/07/08 08:44:31;;;;;;;3.15;0.50;;;;;;;15.24;52.79;102928.66;4998139;28;20657;-77
2022/07/08 08:46:58;;;;;;;4.65;0.73;;;;;;;15.02;53.13;102926.59;5011645;28;20042;-75
2022/07/08 08:49:24;;;;;;;5.60;0.40;;;;;;;15.15;52.34;102930.63;5011264;28;20140;-76
2022/07/08 08:51:50;;;;;;;2.83;0.75;;;;;;;15.03;52.49;102925.69;5011660;28;20037;-75
2022/07/08 08:54:20;;;;;;;4.10;0.60;;;;;;;15.36;51.57;102929.22;5013580;28;20046;-76
2022/07/08 08:56:46;;;;;;;9.52;0.60;;;;;;;15.00;52.82;102923.13;4992603;28;20030;-76
2022/07/08 08:59:14;;;;;;;2.58;0.55;;;;;;;14.96;52.65;102924.13;5011372;28;20045;-77
2022/07/08 09:01:40;;;;;;;7.18;0.57;;;;;;;15.24;52.53;102923.41;5012031;28;20060;-75
2022/07/08 09:04:10;;;;;;;3.15;0.47;;;;;;;15.62;51.48;102914.44;5007862;28;20088;-76
2022/07/08 09:06:37;;;;;;;5.30;0.43;;;;;;;15.84;50.90;102919.94;5000313;28;20061;-75
2022/07/08 09:09:03;;;;;;;4.13;0.40;;;;;;;15.99;48.83;102914.22;5013517;28;20695;-77
2022/07/08 09:11:29;;;;;;;7.57;0.80;;;;;;;16.12;49.68;102905.94;5012793;28;20025;-76
2022/07/08 09:14:30;;;;;;;8.82;0.60;;;;;;;16.27;49.03;102902.81;5007412;28;20192;-77
2022/07/08 09:17:09;;;;;;;4.50;0.95;;;;;;;16.17;49.11;102901.38;4937810;28;20703;-78
2022/07/08 09:19:42;;;;;;;7.05;0.68;;;;;;;16.14;49.50;102899.69;4990857;28;20053;-75
2022/07/08 09:22:09;;;;;;;5.35;0.60;;;;;;;15.94;49.38;102902.91;5011233;28;20450;-76
2022/07/08 09:24:35;;;;;;;5.22;0.95;;;;;;;16.10;49.42;102902.47;5010823;28;20050;-77
2022/07/08 09:27:03;;;;;;;5.05;0.90;;;;;;;15.74;50.50;102902.66;5008943;28;20166;-76
2022/07/08 09:29:28;;;;;;;7.47;0.93;;;;;;;15.75;50.90;102899.09;5016066;28;20125;-75
2022/07/08 09:32:08;;;;;;;7.65;0.50;;;;;;;16.16;50.32;102899.66;5016981;28;20099;-75
2022/07/08 09:34:35;;;;;;;9.45;1.13;;;;;;;15.93;50.72;102909.13;5015055;28;20057;-77
2022/07/08 09:37:10;;;;;;;9.68;0.68;;;;;;;16.38;49.66;102902.47;5013838;28;20094;-75
2022/07/08 09:39:35;;;;;;;6.25;0.70;;;;;;;16.47;49.17;102898.66;5011594;28;20033;-76
2022/07/08 09:42:01;;;;;;;4.00;0.75;;;;;;;16.46;49.48;102912.75;5008325;28;20036;-76
2022/07/08 09:44:27;;;;;;;5.05;0.77;;;;;;;16.89;48.76;102900.78;4998760;28;20555;-77
2022/07/08 09:46:52;;;;;;;7.55;1.23;;;;;;;16.58;48.10;102896.53;5015997;28;20052;-76
2022/07/08 09:49:32;;;;;;;5.60;0.70;;;;;;;16.85;48.45;102899.19;4993328;28;20053;-76
2022/07/08 09:51:58;;;;;;;4.85;0.60;;;;;;;16.72;47.78;102894.28;5009033;28;20045;-76
2022/07/08 09:54:25;;;;;;;4.82;0.98;;;;;;;17.19;47.33;102899.69;5013894;28;20057;-76
2022/07/08 09:57:01;;;;;;;3.97;0.60;;;;;;;16.85;47.27;102888.63;5001444;28;20029;-77
2022/07/08 09:59:31;;;;;;;5.88;0.60;;;;;;;16.48;47.61;102889.81;5037489;28;20053;-77
2022/07/08 10:01:58;;;;;;;7.35;0.60;;;;;;;17.02;47.55;102892.41;5006120;28;20044;-77
2022/07/08 10:04:26;;;;;;;6.45;0.95;;;;;;;17.26;46.05;102889.75;5004257;28;20052;-77
2022/07/08 10:06:52;;;;;;;9.50;0.77;;;;;;;17.23;45.62;102885.47;5014240;28;20029;-76
2022/07/08 10:09:19;;;;;;;8.98;0.60;;;;;;;17.29;45.73;102886.16;5003789;28;20052;-77
2022/07/08 10:11:46;;;;;;;2.67;0.55;;;;;;;17.55;45.56;102888.72;5004382;28;20506;-76
2022/07/08 10:14:12;;;;;;;8.02;0.65;;;;;;;17.14;46.27;102893.72;4974269;28;20073;-77
2022/07/08 10:16:39;;;;;;;9.02;1.52;;;;;;;17.10;46.14;102894.75;4997150;28;20037;-77
2022/07/08 10:19:11;;;;;;;6.38;0.65;;;;;;;17.11;46.42;102893.81;5036518;28;20080;-76
2022/07/08 10:21:39;;;;;;;8.95;0.60;;;;;;;17.28;45.89;102902.94;5032709;28;20037;-76
2022/07/08 10:24:12;;;;;;;4.88;1.10;;;;;;;16.73;47.15;102901.31;5032819;28;20117;-79
2022/07/08 10:26:40;;;;;;;11.00;0.80;;;;;;;16.66;47.83;102897.13;5017575;28;20033;-77
2022/07/08 10:29:11;;;;;;;10.43;0.80;;;;;;;16.07;48.64;102900.81;5004200;28;20029;-75
2022/07/08 10:31:47;;;;;;;7.73;0.60;;;;;;;16.41;48.84;102910.28;5019251;28;20144;-76
2022/07/08 10:34:17;;;;;;;7.93;0.82;;;;;;;16.50;48.34;102914.41;5020116;28;20306;-75
2022/07/08 10:36:53;;;;;;;8.77;0.50;;;;;;;16.80;46.93;102908.13;5019149;28;20034;-76
2022/07/08 10:39:40;;;;;;;10.52;1.15;;;;;;;17.10;47.15;102910.59;5016575;28;20046;-76
2022/07/08 10:42:07;;;;;;;12.10;1.00;;;;;;;16.90;47.33;102908.66;5021231;28;20118;-76
2022/07/08 10:44:42;;;;;;;6.82;1.17;;;;;;;16.91;47.10;102905.13;5020354;28;20045;-77
2022/07/08 10:47:08;;;;;;;3.80;0.57;;;;;;;16.85;47.17;102910.59;5028268;28;20033;-77
2022/07/08 10:49:40;;;;;;;8.98;1.17;;;;;;;16.64;47.48;102906.88;5021127;28;20049;-77
2022/07/08 10:52:06;;;;;;;5.05;1.25;;;;;;;16.93;47.42;102897.13;5015535;28;20037;-76
2022/07/08 10:54:36;;;;;;;8.43;1.15;;;;;;;16.57;48.33;102910.63;5015882;28;20042;-77
2022/07/08 10:57:07;;;;;;;6.57;1.05;;;;;;;16.89;47.63;102900.78;5034895;28;20033;-76
2022/07/08 10:59:37;;;;;;;9.47;1.10;;;;;;;16.98;47.14;102898.69;5004047;28;20133;-76
2022/07/08 11:02:16;;;;;;;5.60;0.90;;;;;;;17.93;46.29;102894.31;5020526;28;20503;-76
2022/07/08 11:04:47;;;;;;;5.15;0.70;;;;;;;18.46;44.79;102906.34;4973782;28;20040;-76
2022/07/08 11:07:16;;;;;;;12.52;2.58;;;;;;;18.34;44.45;102905.06;5001887;28;20025;-75
2022/07/08 11:10:03;;;;;;;8.77;1.05;;;;;;;18.57;44.27;102903.25;5016394;28;20088;-77
2022/07/08 11:12:35;;;;;;;10.45;1.70;;;;;;;18.50;44.30;102899.09;5020390;28;20034;-77
2022/07/08 11:15:04;;;;;;;9.32;1.15;;;;;;;18.06;45.07;102900.84;5032433;28;20440;-77
2022/07/08 11:17:36;;;;;;;10.15;1.13;;;;;;;18.56;45.00;102902.34;5015821;28;20102;-76
2022/07/08 11:20:08;;;;;;;8.48;1.23;;;;;;;19.04;42.72;102898.56;5002471;28;20140;-75
2022/07/08 11:22:36;;;;;;;6.30;1.00;;;;;;;17.85;45.69;102904.34;5013562;28;20030;-75
2022/07/08 11:25:01;;;;;;;4.88;1.17;;;;;;;18.68;44.45;102901.84;5018890;28;20072;-77